sensor_id;sensor_type;location;lat;lon;timestamp;P1;durP1;ratioP1;P2;durP2;ratioP2
44197;SDS011;30157;55.512;37.764;2023-03-23T00:01:25;5.03;;;3.42;;
44197;SDS011;30157;55.512;37.764;2023-03-23T00:03:55;6.05;;;4.22;;
44197;SDS011;30157;55.512;37.764;2023-03-23T00:06:23;5.93;;;3.80;;
44197;SDS011;30157;55.512;37.764;2023-03-23T00:08:51;6.47;;;3.90;;
44197;SDS011;30157;55.512;37.764;2023-03-23T00:11:22;5.72;;;3.45;;
44197;SDS011;30157;55.512;37.764;2023-03-23T00:13:52;7.20;;;4.00;;
44197;SDS011;30157;55.512;37.764;2023-03-23T00:16:21;5.55;;;3.63;;
44197;SDS011;30157;55.512;37.764;2023-03-23T00:18:59;7.15;;;3.92;;
44197;SDS011;30157;55.512;37.764;2023-03-23T00:21:51;7.05;;;4.05;;
44197;SDS011;30157;55.512;37.764;2023-03-23T00:24:18;9.00;;;4.60;;
44197;SDS011;30157;55.512;37.764;2023-03-23T00:26:45;8.35;;;4.72;;
44197;SDS011;30157;55.512;37.764;2023-03-23T00:29:16;7.57;;;3.78;;
44197;SDS011;30157;55.512;37.764;2023-03-23T00:31:49;6.47;;;3.70;;
44197;SDS011;30157;55.512;37.764;2023-03-23T00:34:16;7.93;;;3.72;;
44197;SDS011;30157;55.512;37.764;2023-03-23T00:36:45;5.32;;;3.72;;
44197;SDS011;30157;55.512;37.764;2023-03-23T00:39:16;6.85;;;4.43;;
44197;SDS011;30157;55.512;37.764;2023-03-23T00:41:43;6.63;;;4.20;;
44197;SDS011;30157;55.512;37.764;2023-03-23T00:44:10;6.88;;;4.20;;
44197;SDS011;30157;55.512;37.764;2023-03-23T00:46:35;9.85;;;3.88;;
44197;SDS011;30157;55.512;37.764;2023-03-23T00:49:10;9.50;;;5.20;;
44197;SDS011;30157;55.512;37.764;2023-03-23T00:51:37;8.57;;;4.75;;
44197;SDS011;30157;55.512;37.764;2023-03-23T00:54:04;7.75;;;4.70;;
44197;SDS011;30157;55.512;37.764;2023-03-23T00:56:29;6.50;;;3.60;;
44197;SDS011;30157;55.512;37.764;2023-03-23T00:58:56;5.50;;;3.67;;
44197;SDS011;30157;55.512;37.764;2023-03-23T01:01:21;5.78;;;3.83;;
44197;SDS011;30157;55.512;37.764;2023-03-23T01:03:47;6.32;;;3.33;;
44197;SDS011;30157;55.512;37.764;2023-03-23T01:06:14;8.20;;;5.07;;
44197;SDS011;30157;55.512;37.764;2023-03-23T01:08:43;5.18;;;3.25;;
44197;SDS011;30157;55.512;37.764;2023-03-23T01:11:13;5.63;;;3.38;;
44197;SDS011;30157;55.512;37.764;2023-03-23T01:13:41;6.28;;;3.40;;
44197;SDS011;30157;55.512;37.764;2023-03-23T01:16:08;4.95;;;3.17;;
44197;SDS011;30157;55.512;37.764;2023-03-23T01:18:35;4.68;;;2.70;;
44197;SDS011;30157;55.512;37.764;2023-03-23T01:21:05;4.20;;;2.55;;
44197;SDS011;30157;55.512;37.764;2023-03-23T01:23:35;5.70;;;2.95;;
44197;SDS011;30157;55.512;37.764;2023-03-23T01:26:20;4.68;;;2.85;;
44197;SDS011;30157;55.512;37.764;2023-03-23T01:28:48;5.20;;;2.70;;
44197;SDS011;30157;55.512;37.764;2023-03-23T01:31:19;6.18;;;3.33;;
44197;SDS011;30157;55.512;37.764;2023-03-23T01:33:46;6.15;;;3.13;;
44197;SDS011;30157;55.512;37.764;2023-03-23T01:36:14;4.72;;;2.80;;
44197;SDS011;30157;55.512;37.764;2023-03-23T01:38:45;5.35;;;3.00;;
44197;SDS011;30157;55.512;37.764;2023-03-23T01:41:14;4.97;;;3.17;;
44197;SDS011;30157;55.512;37.764;2023-03-23T01:43:53;4.05;;;2.50;;
44197;SDS011;30157;55.512;37.764;2023-03-23T01:46:21;4.00;;;2.75;;
44197;SDS011;30157;55.512;37.764;2023-03-23T01:48:47;4.35;;;2.80;;
44197;SDS011;30157;55.512;37.764;2023-03-23T01:51:15;4.07;;;2.40;;
44197;SDS011;30157;55.512;37.764;2023-03-23T01:53:51;5.10;;;2.63;;
44197;SDS011;30157;55.512;37.764;2023-03-23T01:56:22;5.03;;;2.90;;
44197;SDS011;30157;55.512;37.764;2023-03-23T01:58:55;4.63;;;2.50;;
44197;SDS011;30157;55.512;37.764;2023-03-23T02:01:24;4.30;;;2.55;;
44197;SDS011;30157;55.512;37.764;2023-03-23T02:03:51;4.78;;;2.80;;
44197;SDS011;30157;55.512;37.764;2023-03-23T02:06:20;4.32;;;2.75;;
44197;SDS011;30157;55.512;37.764;2023-03-23T02:09:18;4.00;;;2.20;;
44197;SDS011;30157;55.512;37.764;2023-03-23T02:11:47;4.60;;;2.60;;
44197;SDS011;30157;55.512;37.764;2023-03-23T02:14:16;3.85;;;2.40;;
44197;SDS011;30157;55.512;37.764;2023-03-23T02:16:44;4.05;;;2.50;;
44197;SDS011;30157;55.512;37.764;2023-03-23T02:28:24;3.67;;;2.40;;
44197;SDS011;30157;55.512;37.764;2023-03-23T02:31:14;4.30;;;2.40;;
44197;SDS011;30157;55.512;37.764;2023-03-23T02:33:49;3.95;;;2.28;;
44197;SDS011;30157;55.512;37.764;2023-03-23T02:36:23;4.72;;;2.30;;
44197;SDS011;30157;55.512;37.764;2023-03-23T02:41:48;4.22;;;2.50;;
44197;SDS011;30157;55.512;37.764;2023-03-23T02:44:30;4.38;;;2.60;;
44197;SDS011;30157;55.512;37.764;2023-03-23T02:46:59;3.13;;;2.08;;
44197;SDS011;30157;55.512;37.764;2023-03-23T02:49:29;3.22;;;2.13;;
44197;SDS011;30157;55.512;37.764;2023-03-23T02:51:58;4.75;;;2.40;;
44197;SDS011;30157;55.512;37.764;2023-03-23T02:54:27;5.50;;;2.63;;
44197;SDS011;30157;55.512;37.764;2023-03-23T02:56:54;3.78;;;2.60;;
44197;SDS011;30157;55.512;37.764;2023-03-23T02:59:26;4.47;;;3.03;;
44197;SDS011;30157;55.512;37.764;2023-03-23T03:02:02;4.47;;;2.90;;
44197;SDS011;30157;55.512;37.764;2023-03-23T03:04:32;4.35;;;2.55;;
44197;SDS011;30157;55.512;37.764;2023-03-23T03:12:34;6.38;;;2.70;;
44197;SDS011;30157;55.512;37.764;2023-03-23T03:18:09;4.85;;;2.97;;
44197;SDS011;30157;55.512;37.764;2023-03-23T03:20:43;6.20;;;3.20;;
44197;SDS011;30157;55.512;37.764;2023-03-23T03:23:14;4.97;;;2.60;;
44197;SDS011;30157;55.512;37.764;2023-03-23T03:25:43;5.55;;;3.20;;
44197;SDS011;30157;55.512;37.764;2023-03-23T03:28:19;5.22;;;3.00;;
44197;SDS011;30157;55.512;37.764;2023-03-23T03:30:52;7.13;;;3.20;;
44197;SDS011;30157;55.512;37.764;2023-03-23T03:33:21;7.80;;;3.25;;
44197;SDS011;30157;55.512;37.764;2023-03-23T03:35:54;8.25;;;4.10;;
44197;SDS011;30157;55.512;37.764;2023-03-23T03:38:21;6.95;;;3.42;;
44197;SDS011;30157;55.512;37.764;2023-03-23T03:40:49;8.50;;;3.83;;
44197;SDS011;30157;55.512;37.764;2023-03-23T03:43:15;9.18;;;3.92;;
44197;SDS011;30157;55.512;37.764;2023-03-23T03:45:41;8.35;;;4.43;;
44197;SDS011;30157;55.512;37.764;2023-03-23T03:48:07;7.80;;;4.07;;
44197;SDS011;30157;55.512;37.764;2023-03-23T03:50:33;7.60;;;4.20;;
44197;SDS011;30157;55.512;37.764;2023-03-23T03:53:01;9.40;;;4.35;;
44197;SDS011;30157;55.512;37.764;2023-03-23T03:55:28;9.15;;;4.43;;
44197;SDS011;30157;55.512;37.764;2023-03-23T03:57:55;9.70;;;4.07;;
44197;SDS011;30157;55.512;37.764;2023-03-23T04:00:41;6.78;;;4.00;;
44197;SDS011;30157;55.512;37.764;2023-03-23T04:03:07;9.52;;;4.03;;
44197;SDS011;30157;55.512;37.764;2023-03-23T04:05:54;7.22;;;4.03;;
44197;SDS011;30157;55.512;37.764;2023-03-23T04:08:22;8.43;;;4.28;;
44197;SDS011;30157;55.512;37.764;2023-03-23T04:10:49;12.65;;;4.95;;
44197;SDS011;30157;55.512;37.764;2023-03-23T04:13:16;11.75;;;5.38;;
44197;SDS011;30157;55.512;37.764;2023-03-23T04:16:13;13.73;;;6.20;;
44197;SDS011;30157;55.512;37.764;2023-03-23T04:18:43;10.40;;;5.72;;
44197;SDS011;30157;55.512;37.764;2023-03-23T04:21:08;11.32;;;5.63;;
44197;SDS011;30157;55.512;37.764;2023-03-23T04:23:34;10.82;;;5.38;;
44197;SDS011;30157;55.512;37.764;2023-03-23T04:26:02;11.45;;;4.88;;
44197;SDS011;30157;55.512;37.764;2023-03-23T04:28:40;9.05;;;4.78;;
44197;SDS011;30157;55.512;37.764;2023-03-23T04:31:24;9.85;;;4.43;;
44197;SDS011;30157;55.512;37.764;2023-03-23T04:33:57;7.32;;;4.22;;
44197;SDS011;30157;55.512;37.764;2023-03-23T04:36:27;10.15;;;5.10;;
44197;SDS011;30157;55.512;37.764;2023-03-23T04:39:03;7.53;;;4.30;;
44197;SDS011;30157;55.512;37.764;2023-03-23T04:41:33;8.25;;;4.70;;
44197;SDS011;30157;55.512;37.764;2023-03-23T04:44:16;9.05;;;4.95;;
44197;SDS011;30157;55.512;37.764;2023-03-23T04:46:49;8.02;;;4.75;;
44197;SDS011;30157;55.512;37.764;2023-03-23T04:49:17;6.68;;;4.50;;
44197;SDS011;30157;55.512;37.764;2023-03-23T04:51:47;10.32;;;5.10;;
44197;SDS011;30157;55.512;37.764;2023-03-23T04:54:39;8.82;;;4.70;;
44197;SDS011;30157;55.512;37.764;2023-03-23T04:57:05;11.15;;;5.50;;
44197;SDS011;30157;55.512;37.764;2023-03-23T04:59:32;9.50;;;4.88;;
44197;SDS011;30157;55.512;37.764;2023-03-23T05:02:04;8.75;;;4.90;;
44197;SDS011;30157;55.512;37.764;2023-03-23T05:04:31;15.32;;;5.47;;
44197;SDS011;30157;55.512;37.764;2023-03-23T05:07:04;9.35;;;4.93;;
44197;SDS011;30157;55.512;37.764;2023-03-23T05:09:33;10.98;;;5.18;;
44197;SDS011;30157;55.512;37.764;2023-03-23T05:12:05;8.55;;;5.07;;
44197;SDS011;30157;55.512;37.764;2023-03-23T05:14:44;9.10;;;5.35;;
44197;SDS011;30157;55.512;37.764;2023-03-23T05:17:14;9.02;;;4.85;;
44197;SDS011;30157;55.512;37.764;2023-03-23T05:19:42;9.18;;;5.40;;
44197;SDS011;30157;55.512;37.764;2023-03-23T05:22:29;8.60;;;5.00;;
44197;SDS011;30157;55.512;37.764;2023-03-23T05:24:58;9.38;;;5.00;;
44197;SDS011;30157;55.512;37.764;2023-03-23T05:27:28;11.95;;;5.82;;
44197;SDS011;30157;55.512;37.764;2023-03-23T05:29:58;9.00;;;5.55;;
44197;SDS011;30157;55.512;37.764;2023-03-23T05:32:27;11.00;;;4.82;;
44197;SDS011;30157;55.512;37.764;2023-03-23T05:34:57;9.40;;;4.93;;
44197;SDS011;30157;55.512;37.764;2023-03-23T05:37:28;10.85;;;4.88;;
44197;SDS011;30157;55.512;37.764;2023-03-23T05:40:05;11.10;;;5.50;;
44197;SDS011;30157;55.512;37.764;2023-03-23T05:42:32;9.73;;;5.63;;
44197;SDS011;30157;55.512;37.764;2023-03-23T05:45:13;7.85;;;4.88;;
44197;SDS011;30157;55.512;37.764;2023-03-23T05:47:40;11.13;;;5.40;;
44197;SDS011;30157;55.512;37.764;2023-03-23T05:50:11;8.88;;;5.05;;
44197;SDS011;30157;55.512;37.764;2023-03-23T05:52:38;10.00;;;5.68;;
44197;SDS011;30157;55.512;37.764;2023-03-23T05:55:08;10.57;;;5.50;;
44197;SDS011;30157;55.512;37.764;2023-03-23T05:57:37;9.57;;;5.15;;
44197;SDS011;30157;55.512;37.764;2023-03-23T06:00:20;11.68;;;5.25;;
44197;SDS011;30157;55.512;37.764;2023-03-23T06:02:54;8.95;;;5.38;;
44197;SDS011;30157;55.512;37.764;2023-03-23T06:05:29;9.65;;;5.80;;
44197;SDS011;30157;55.512;37.764;2023-03-23T06:07:56;12.05;;;5.68;;
44197;SDS011;30157;55.512;37.764;2023-03-23T06:10:23;11.20;;;5.28;;
44197;SDS011;30157;55.512;37.764;2023-03-23T06:12:56;9.60;;;5.05;;
44197;SDS011;30157;55.512;37.764;2023-03-23T06:15:32;7.13;;;4.47;;
44197;SDS011;30157;55.512;37.764;2023-03-23T06:17:58;9.65;;;4.68;;
44197;SDS011;30157;55.512;37.764;2023-03-23T06:20:30;8.77;;;5.25;;
44197;SDS011;30157;55.512;37.764;2023-03-23T06:22:58;8.82;;;5.75;;
44197;SDS011;30157;55.512;37.764;2023-03-23T06:25:30;10.80;;;5.82;;
44197;SDS011;30157;55.512;37.764;2023-03-23T06:27:57;10.80;;;5.90;;
44197;SDS011;30157;55.512;37.764;2023-03-23T06:30:23;8.65;;;4.72;;
44197;SDS011;30157;55.512;37.764;2023-03-23T06:32:50;8.95;;;5.78;;
44197;SDS011;30157;55.512;37.764;2023-03-23T06:38:10;8.18;;;5.10;;
44197;SDS011;30157;55.512;37.764;2023-03-23T06:40:44;8.15;;;4.88;;
44197;SDS011;30157;55.512;37.764;2023-03-23T06:43:15;8.98;;;5.28;;
44197;SDS011;30157;55.512;37.764;2023-03-23T06:46:09;9.90;;;5.05;;
44197;SDS011;30157;55.512;37.764;2023-03-23T06:48:38;10.50;;;5.07;;
44197;SDS011;30157;55.512;37.764;2023-03-23T06:51:05;10.15;;;5.03;;
44197;SDS011;30157;55.512;37.764;2023-03-23T06:53:32;9.85;;;6.50;;
44197;SDS011;30157;55.512;37.764;2023-03-23T06:55:59;9.52;;;5.97;;
44197;SDS011;30157;55.512;37.764;2023-03-23T06:58:25;10.27;;;6.05;;
44197;SDS011;30157;55.512;37.764;2023-03-23T07:00:55;9.70;;;5.82;;
44197;SDS011;30157;55.512;37.764;2023-03-23T07:03:26;9.35;;;5.45;;
44197;SDS011;30157;55.512;37.764;2023-03-23T07:05:54;11.70;;;5.57;;
44197;SDS011;30157;55.512;37.764;2023-03-23T07:08:22;9.88;;;5.57;;
44197;SDS011;30157;55.512;37.764;2023-03-23T07:10:51;7.88;;;5.20;;
44197;SDS011;30157;55.512;37.764;2023-03-23T07:13:22;7.82;;;5.10;;
44197;SDS011;30157;55.512;37.764;2023-03-23T07:15:52;7.85;;;5.07;;
44197;SDS011;30157;55.512;37.764;2023-03-23T07:18:19;8.18;;;5.68;;
44197;SDS011;30157;55.512;37.764;2023-03-23T07:20:48;9.38;;;5.30;;
44197;SDS011;30157;55.512;37.764;2023-03-23T07:23:19;8.25;;;5.40;;
44197;SDS011;30157;55.512;37.764;2023-03-23T07:26:04;8.23;;;5.22;;
44197;SDS011;30157;55.512;37.764;2023-03-23T07:28:36;6.72;;;4.65;;
44197;SDS011;30157;55.512;37.764;2023-03-23T07:31:17;10.27;;;5.00;;
44197;SDS011;30157;55.512;37.764;2023-03-23T07:33:43;9.68;;;5.10;;
44197;SDS011;30157;55.512;37.764;2023-03-23T07:36:09;7.20;;;5.22;;
44197;SDS011;30157;55.512;37.764;2023-03-23T07:38:35;5.13;;;4.07;;
44197;SDS011;30157;55.512;37.764;2023-03-23T07:41:02;8.45;;;5.53;;
44197;SDS011;30157;55.512;37.764;2023-03-23T07:43:30;8.68;;;5.50;;
44197;SDS011;30157;55.512;37.764;2023-03-23T07:46:14;8.07;;;4.85;;
44197;SDS011;30157;55.512;37.764;2023-03-23T07:49:03;7.78;;;4.57;;
44197;SDS011;30157;55.512;37.764;2023-03-23T07:51:39;8.70;;;4.78;;
44197;SDS011;30157;55.512;37.764;2023-03-23T07:54:07;8.32;;;4.80;;
44197;SDS011;30157;55.512;37.764;2023-03-23T07:56:53;6.22;;;4.30;;
44197;SDS011;30157;55.512;37.764;2023-03-23T07:59:25;7.05;;;4.50;;
44197;SDS011;30157;55.512;37.764;2023-03-23T08:01:51;8.10;;;4.72;;
44197;SDS011;30157;55.512;37.764;2023-03-23T08:04:32;7.97;;;5.10;;
44197;SDS011;30157;55.512;37.764;2023-03-23T08:07:25;7.38;;;4.85;;
44197;SDS011;30157;55.512;37.764;2023-03-23T08:09:59;6.20;;;4.80;;
44197;SDS011;30157;55.512;37.764;2023-03-23T08:12:31;5.50;;;4.50;;
44197;SDS011;30157;55.512;37.764;2023-03-23T08:15:16;7.68;;;5.18;;
44197;SDS011;30157;55.512;37.764;2023-03-23T08:18:07;8.00;;;4.85;;
44197;SDS011;30157;55.512;37.764;2023-03-23T08:20:51;6.93;;;4.80;;
44197;SDS011;30157;55.512;37.764;2023-03-23T08:23:50;8.90;;;4.50;;
44197;SDS011;30157;55.512;37.764;2023-03-23T08:26:42;5.95;;;5.13;;
44197;SDS011;30157;55.512;37.764;2023-03-23T08:29:31;7.10;;;5.05;;
44197;SDS011;30157;55.512;37.764;2023-03-23T08:32:36;6.07;;;4.32;;
44197;SDS011;30157;55.512;37.764;2023-03-23T08:35:24;7.22;;;4.40;;
44197;SDS011;30157;55.512;37.764;2023-03-23T08:38:13;7.75;;;5.13;;
44197;SDS011;30157;55.512;37.764;2023-03-23T08:41:08;6.20;;;4.32;;
44197;SDS011;30157;55.512;37.764;2023-03-23T08:43:48;6.93;;;4.82;;
44197;SDS011;30157;55.512;37.764;2023-03-23T08:46:32;6.80;;;4.50;;
44197;SDS011;30157;55.512;37.764;2023-03-23T08:49:07;8.30;;;4.57;;
44197;SDS011;30157;55.512;37.764;2023-03-23T08:51:52;5.90;;;4.38;;
44197;SDS011;30157;55.512;37.764;2023-03-23T08:54:44;6.60;;;4.50;;
44197;SDS011;30157;55.512;37.764;2023-03-23T08:57:31;5.75;;;4.53;;
44197;SDS011;30157;55.512;37.764;2023-03-23T09:00:25;5.50;;;4.00;;
44197;SDS011;30157;55.512;37.764;2023-03-23T09:03:06;5.35;;;4.10;;
44197;SDS011;30157;55.512;37.764;2023-03-23T09:05:49;6.03;;;3.92;;
44197;SDS011;30157;55.512;37.764;2023-03-23T09:08:21;5.60;;;3.72;;
44197;SDS011;30157;55.512;37.764;2023-03-23T09:10:47;6.35;;;4.43;;
44197;SDS011;30157;55.512;37.764;2023-03-23T09:13:14;6.25;;;4.28;;
44197;SDS011;30157;55.512;37.764;2023-03-23T09:15:40;7.30;;;4.53;;
44197;SDS011;30157;55.512;37.764;2023-03-23T09:18:06;5.55;;;4.50;;
44197;SDS011;30157;55.512;37.764;2023-03-23T09:20:34;4.82;;;4.00;;
44197;SDS011;30157;55.512;37.764;2023-03-23T09:23:02;6.30;;;4.20;;
44197;SDS011;30157;55.512;37.764;2023-03-23T09:25:28;5.28;;;3.95;;
44197;SDS011;30157;55.512;37.764;2023-03-23T09:27:54;5.80;;;4.00;;
44197;SDS011;30157;55.512;37.764;2023-03-23T09:30:22;5.10;;;4.20;;
44197;SDS011;30157;55.512;37.764;2023-03-23T09:32:53;6.68;;;3.97;;
44197;SDS011;30157;55.512;37.764;2023-03-23T09:35:22;7.68;;;4.13;;
44197;SDS011;30157;55.512;37.764;2023-03-23T09:37:48;5.90;;;4.68;;
44197;SDS011;30157;55.512;37.764;2023-03-23T09:40:22;6.35;;;3.92;;
44197;SDS011;30157;55.512;37.764;2023-03-23T09:46:15;6.00;;;4.20;;
44197;SDS011;30157;55.512;37.764;2023-03-23T09:48:54;6.13;;;3.63;;
44197;SDS011;30157;55.512;37.764;2023-03-23T09:54:17;6.72;;;4.13;;
44197;SDS011;30157;55.512;37.764;2023-03-23T09:56:47;5.28;;;4.32;;
44197;SDS011;30157;55.512;37.764;2023-03-23T09:59:24;5.70;;;4.70;;
44197;SDS011;30157;55.512;37.764;2023-03-23T10:01:53;6.50;;;4.10;;
44197;SDS011;30157;55.512;37.764;2023-03-23T10:04:36;8.00;;;4.32;;
44197;SDS011;30157;55.512;37.764;2023-03-23T10:07:11;5.30;;;4.05;;
44197;SDS011;30157;55.512;37.764;2023-03-23T10:12:17;6.57;;;4.38;;
44197;SDS011;30157;55.512;37.764;2023-03-23T10:17:21;5.65;;;4.13;;
44197;SDS011;30157;55.512;37.764;2023-03-23T10:22:32;5.35;;;4.03;;
44197;SDS011;30157;55.512;37.764;2023-03-23T10:30:44;5.28;;;3.90;;
44197;SDS011;30157;55.512;37.764;2023-03-23T10:39:14;4.10;;;3.40;;
44197;SDS011;30157;55.512;37.764;2023-03-23T10:41:43;4.68;;;3.50;;
44197;SDS011;30157;55.512;37.764;2023-03-23T10:44:19;6.28;;;3.72;;
44197;SDS011;30157;55.512;37.764;2023-03-23T10:47:06;5.07;;;3.65;;
44197;SDS011;30157;55.512;37.764;2023-03-23T10:52:34;5.45;;;3.65;;
44197;SDS011;30157;55.512;37.764;2023-03-23T10:55:09;6.45;;;3.80;;
44197;SDS011;30157;55.512;37.764;2023-03-23T10:57:43;9.10;;;3.88;;
44197;SDS011;30157;55.512;37.764;2023-03-23T11:00:25;5.20;;;4.00;;
44197;SDS011;30157;55.512;37.764;2023-03-23T11:05:38;5.00;;;3.43;;
44197;SDS011;30157;55.512;37.764;2023-03-23T11:08:15;4.22;;;3.50;;
44197;SDS011;30157;55.512;37.764;2023-03-23T11:10:49;5.20;;;3.42;;
44197;SDS011;30157;55.512;37.764;2023-03-23T11:13:18;4.35;;;3.40;;
44197;SDS011;30157;55.512;37.764;2023-03-23T11:15:46;4.80;;;3.45;;
44197;SDS011;30157;55.512;37.764;2023-03-23T11:20:51;4.50;;;3.30;;
44197;SDS011;30157;55.512;37.764;2023-03-23T11:23:29;5.88;;;3.50;;
44197;SDS011;30157;55.512;37.764;2023-03-23T11:26:00;6.45;;;3.90;;
44197;SDS011;30157;55.512;37.764;2023-03-23T11:28:33;5.30;;;3.30;;
44197;SDS011;30157;55.512;37.764;2023-03-23T11:31:02;6.72;;;3.75;;
44197;SDS011;30157;55.512;37.764;2023-03-23T11:33:30;4.50;;;3.30;;
44197;SDS011;30157;55.512;37.764;2023-03-23T11:36:14;5.47;;;3.03;;
44197;SDS011;30157;55.512;37.764;2023-03-23T11:38:43;4.57;;;3.20;;
44197;SDS011;30157;55.512;37.764;2023-03-23T11:41:18;6.72;;;3.80;;
44197;SDS011;30157;55.512;37.764;2023-03-23T11:43:45;5.60;;;3.45;;
44197;SDS011;30157;55.512;37.764;2023-03-23T11:51:41;3.95;;;3.15;;
44197;SDS011;30157;55.512;37.764;2023-03-23T11:56:49;5.10;;;3.20;;
44197;SDS011;30157;55.512;37.764;2023-03-23T11:59:16;3.90;;;2.83;;
44197;SDS011;30157;55.512;37.764;2023-03-23T12:01:53;4.22;;;3.05;;
44197;SDS011;30157;55.512;37.764;2023-03-23T12:09:55;5.05;;;3.05;;
44197;SDS011;30157;55.512;37.764;2023-03-23T12:21:35;7.55;;;3.13;;
44197;SDS011;30157;55.512;37.764;2023-03-23T12:26:50;5.97;;;3.30;;
44197;SDS011;30157;55.512;37.764;2023-03-23T12:29:29;5.45;;;3.20;;
44197;SDS011;30157;55.512;37.764;2023-03-23T12:42:27;6.18;;;3.00;;
44197;SDS011;30157;55.512;37.764;2023-03-23T12:48:07;4.22;;;3.15;;
44197;SDS011;30157;55.512;37.764;2023-03-23T12:50:39;4.60;;;3.08;;
44197;SDS011;30157;55.512;37.764;2023-03-23T12:53:09;5.38;;;2.85;;
44197;SDS011;30157;55.512;37.764;2023-03-23T12:58:26;4.93;;;3.10;;
44197;SDS011;30157;55.512;37.764;2023-03-23T13:01:01;4.28;;;3.15;;
44197;SDS011;30157;55.512;37.764;2023-03-23T13:06:37;5.88;;;3.40;;
44197;SDS011;30157;55.512;37.764;2023-03-23T13:11:55;7.72;;;3.20;;
44197;SDS011;30157;55.512;37.764;2023-03-23T13:22:56;6.32;;;3.38;;
44197;SDS011;30157;55.512;37.764;2023-03-23T13:28:02;4.57;;;3.25;;
44197;SDS011;30157;55.512;37.764;2023-03-23T13:30:28;5.40;;;3.38;;
44197;SDS011;30157;55.512;37.764;2023-03-23T13:33:02;7.25;;;3.58;;
44197;SDS011;30157;55.512;37.764;2023-03-23T13:35:33;6.53;;;3.63;;
44197;SDS011;30157;55.512;37.764;2023-03-23T13:38:02;6.10;;;3.30;;
44197;SDS011;30157;55.512;37.764;2023-03-23T13:40:41;4.57;;;3.40;;
44197;SDS011;30157;55.512;37.764;2023-03-23T13:43:09;7.38;;;3.45;;
44197;SDS011;30157;55.512;37.764;2023-03-23T13:45:42;5.05;;;3.55;;
44197;SDS011;30157;55.512;37.764;2023-03-23T13:50:57;4.57;;;3.50;;
44197;SDS011;30157;55.512;37.764;2023-03-23T13:53:44;7.10;;;3.90;;
44197;SDS011;30157;55.512;37.764;2023-03-23T13:56:32;5.70;;;3.45;;
44197;SDS011;30157;55.512;37.764;2023-03-23T13:59:06;5.45;;;3.80;;
44197;SDS011;30157;55.512;37.764;2023-03-23T14:01:42;5.50;;;3.20;;
44197;SDS011;30157;55.512;37.764;2023-03-23T14:04:15;6.68;;;3.42;;
44197;SDS011;30157;55.512;37.764;2023-03-23T14:06:44;5.47;;;3.70;;
44197;SDS011;30157;55.512;37.764;2023-03-23T14:09:27;6.63;;;3.58;;
44197;SDS011;30157;55.512;37.764;2023-03-23T14:12:14;7.15;;;3.60;;
44197;SDS011;30157;55.512;37.764;2023-03-23T14:14:46;5.78;;;3.55;;
44197;SDS011;30157;55.512;37.764;2023-03-23T14:17:24;5.32;;;3.67;;
44197;SDS011;30157;55.512;37.764;2023-03-23T14:19:52;6.07;;;3.88;;
44197;SDS011;30157;55.512;37.764;2023-03-23T14:22:27;6.43;;;3.65;;
44197;SDS011;30157;55.512;37.764;2023-03-23T14:25:16;6.28;;;3.70;;
44197;SDS011;30157;55.512;37.764;2023-03-23T14:27:43;5.20;;;3.72;;
44197;SDS011;30157;55.512;37.764;2023-03-23T14:30:17;9.05;;;3.88;;
44197;SDS011;30157;55.512;37.764;2023-03-23T14:32:51;6.88;;;4.10;;
44197;SDS011;30157;55.512;37.764;2023-03-23T14:35:26;6.70;;;3.75;;
44197;SDS011;30157;55.512;37.764;2023-03-23T14:37:55;6.20;;;3.85;;
44197;SDS011;30157;55.512;37.764;2023-03-23T14:40:22;6.45;;;3.80;;
44197;SDS011;30157;55.512;37.764;2023-03-23T14:42:51;8.68;;;4.40;;
44197;SDS011;30157;55.512;37.764;2023-03-23T14:45:20;6.40;;;3.83;;
44197;SDS011;30157;55.512;37.764;2023-03-23T14:47:48;6.97;;;4.38;;
44197;SDS011;30157;55.512;37.764;2023-03-23T14:50:57;7.57;;;4.80;;
44197;SDS011;30157;55.512;37.764;2023-03-23T14:53:29;8.00;;;4.90;;
44197;SDS011;30157;55.512;37.764;2023-03-23T14:56:09;6.65;;;4.00;;
44197;SDS011;30157;55.512;37.764;2023-03-23T14:58:38;7.47;;;4.00;;
44197;SDS011;30157;55.512;37.764;2023-03-23T15:01:08;6.90;;;4.00;;
44197;SDS011;30157;55.512;37.764;2023-03-23T15:03:38;6.10;;;3.60;;
44197;SDS011;30157;55.512;37.764;2023-03-23T15:06:10;7.32;;;3.90;;
44197;SDS011;30157;55.512;37.764;2023-03-23T15:08:39;5.82;;;3.33;;
44197;SDS011;30157;55.512;37.764;2023-03-23T15:13:47;6.38;;;3.50;;
44197;SDS011;30157;55.512;37.764;2023-03-23T15:16:18;4.85;;;3.38;;
44197;SDS011;30157;55.512;37.764;2023-03-23T15:18:54;5.35;;;3.47;;
44197;SDS011;30157;55.512;37.764;2023-03-23T15:21:30;7.95;;;3.50;;
44197;SDS011;30157;55.512;37.764;2023-03-23T15:23:56;6.10;;;3.20;;
44197;SDS011;30157;55.512;37.764;2023-03-23T15:26:33;5.57;;;3.38;;
44197;SDS011;30157;55.512;37.764;2023-03-23T15:31:32;7.40;;;3.60;;
44197;SDS011;30157;55.512;37.764;2023-03-23T15:34:02;5.72;;;3.58;;
44197;SDS011;30157;55.512;37.764;2023-03-23T15:36:31;7.50;;;3.83;;
44197;SDS011;30157;55.512;37.764;2023-03-23T15:38:59;7.55;;;3.85;;
44197;SDS011;30157;55.512;37.764;2023-03-23T15:41:26;6.47;;;4.40;;
44197;SDS011;30157;55.512;37.764;2023-03-23T15:43:55;8.68;;;4.30;;
44197;SDS011;30157;55.512;37.764;2023-03-23T15:46:27;6.15;;;4.15;;
44197;SDS011;30157;55.512;37.764;2023-03-23T15:51:28;8.20;;;4.10;;
44197;SDS011;30157;55.512;37.764;2023-03-23T15:53:55;6.35;;;3.90;;
44197;SDS011;30157;55.512;37.764;2023-03-23T15:56:22;7.15;;;4.20;;
44197;SDS011;30157;55.512;37.764;2023-03-23T15:58:50;7.72;;;3.92;;
44197;SDS011;30157;55.512;37.764;2023-03-23T16:01:34;7.65;;;3.60;;
44197;SDS011;30157;55.512;37.764;2023-03-23T16:04:05;7.85;;;4.32;;
44197;SDS011;30157;55.512;37.764;2023-03-23T16:06:34;7.35;;;3.83;;
44197;SDS011;30157;55.512;37.764;2023-03-23T16:09:01;7.43;;;3.75;;
44197;SDS011;30157;55.512;37.764;2023-03-23T16:11:28;7.47;;;3.50;;
44197;SDS011;30157;55.512;37.764;2023-03-23T16:13:55;8.95;;;3.45;;
44197;SDS011;30157;55.512;37.764;2023-03-23T16:16:22;10.45;;;3.85;;
44197;SDS011;30157;55.512;37.764;2023-03-23T16:18:52;10.07;;;4.10;;
44197;SDS011;30157;55.512;37.764;2023-03-23T16:21:18;7.43;;;3.83;;
44197;SDS011;30157;55.512;37.764;2023-03-23T16:23:43;10.20;;;4.10;;
44197;SDS011;30157;55.512;37.764;2023-03-23T16:26:11;9.43;;;4.70;;
44197;SDS011;30157;55.512;37.764;2023-03-23T16:28:38;9.93;;;4.65;;
44197;SDS011;30157;55.512;37.764;2023-03-23T16:31:05;7.95;;;4.50;;
44197;SDS011;30157;55.512;37.764;2023-03-23T16:33:31;10.02;;;4.45;;
44197;SDS011;30157;55.512;37.764;2023-03-23T16:35:57;8.85;;;3.90;;
44197;SDS011;30157;55.512;37.764;2023-03-23T16:38:23;10.45;;;4.95;;
44197;SDS011;30157;55.512;37.764;2023-03-23T16:40:49;11.98;;;4.47;;
44197;SDS011;30157;55.512;37.764;2023-03-23T16:43:15;7.97;;;4.15;;
44197;SDS011;30157;55.512;37.764;2023-03-23T16:45:41;7.75;;;3.72;;
44197;SDS011;30157;55.512;37.764;2023-03-23T16:48:08;6.95;;;4.05;;
44197;SDS011;30157;55.512;37.764;2023-03-23T16:50:35;11.40;;;4.28;;
44197;SDS011;30157;55.512;37.764;2023-03-23T16:53:03;7.65;;;4.40;;
44197;SDS011;30157;55.512;37.764;2023-03-23T16:55:30;10.88;;;5.30;;
44197;SDS011;30157;55.512;37.764;2023-03-23T16:57:56;9.98;;;5.30;;
44197;SDS011;30157;55.512;37.764;2023-03-23T17:00:23;9.48;;;4.85;;
44197;SDS011;30157;55.512;37.764;2023-03-23T17:02:50;8.90;;;4.22;;
44197;SDS011;30157;55.512;37.764;2023-03-23T17:05:17;6.85;;;4.20;;
44197;SDS011;30157;55.512;37.764;2023-03-23T17:07:45;6.85;;;4.22;;
44197;SDS011;30157;55.512;37.764;2023-03-23T17:10:12;6.10;;;4.03;;